sensor_id;sensor_type;location;lat;lon;timestamp;temperature;humidity
37408;DHT22;24866;50.248;8.252;2023-03-25T00:01:50;7.60;99.90
37408;DHT22;24866;50.248;8.252;2023-03-25T00:04:20;7.60;99.90
37408;DHT22;24866;50.248;8.252;2023-03-25T00:06:54;7.50;99.90
37408;DHT22;24866;50.248;8.252;2023-03-25T00:09:24;7.60;99.90
37408;DHT22;24866;50.248;8.252;2023-03-25T00:11:54;7.60;99.90
37408;DHT22;24866;50.248;8.252;2023-03-25T00:14:26;7.60;99.90
37408;DHT22;24866;50.248;8.252;2023-03-25T00:16:56;7.50;99.90
37408;DHT22;24866;50.248;8.252;2023-03-25T00:19:26;7.60;99.90
37408;DHT22;24866;50.248;8.252;2023-03-25T00:21:57;7.60;99.90
37408;DHT22;24866;50.248;8.252;2023-03-25T00:24:27;7.60;99.90
37408;DHT22;24866;50.248;8.252;2023-03-25T00:26:57;7.50;99.90
37408;DHT22;24866;50.248;8.252;2023-03-25T00:29:29;7.40;99.90
37408;DHT22;24866;50.248;8.252;2023-03-25T00:31:59;7.40;99.90
37408;DHT22;24866;50.248;8.252;2023-03-25T00:34:29;7.40;99.90
37408;DHT22;24866;50.248;8.252;2023-03-25T00:36:59;7.40;99.90
37408;DHT22;24866;50.248;8.252;2023-03-25T00:39:30;7.40;99.90
37408;DHT22;24866;50.248;8.252;2023-03-25T00:42:00;7.40;99.90
37408;DHT22;24866;50.248;8.252;2023-03-25T00:44:31;7.40;99.90
37408;DHT22;24866;50.248;8.252;2023-03-25T00:47:01;7.40;99.90
37408;DHT22;24866;50.248;8.252;2023-03-25T00:49:31;7.40;99.90
37408;DHT22;24866;50.248;8.252;2023-03-25T00:52:01;7.40;99.90
37408;DHT22;24866;50.248;8.252;2023-03-25T00:54:32;7.40;99.90
37408;DHT22;24866;50.248;8.252;2023-03-25T00:57:02;7.40;99.90
37408;DHT22;24866;50.248;8.252;2023-03-25T00:59:33;7.40;99.90
37408;DHT22;24866;50.248;8.252;2023-03-25T01:02:03;7.30;99.90
37408;DHT22;24866;50.248;8.252;2023-03-25T01:04:35;7.30;99.90
37408;DHT22;24866;50.248;8.252;2023-03-25T01:07:06;7.30;99.90
37408;DHT22;24866;50.248;8.252;2023-03-25T01:09:38;7.40;99.90
37408;DHT22;24866;50.248;8.252;2023-03-25T01:12:09;7.40;99.90
37408;DHT22;24866;50.248;8.252;2023-03-25T01:14:41;7.40;99.90
37408;DHT22;24866;50.248;8.252;2023-03-25T01:17:11;7.40;99.90
37408;DHT22;24866;50.248;8.252;2023-03-25T01:19:41;7.40;99.90
37408;DHT22;24866;50.248;8.252;2023-03-25T01:22:10;7.50;99.90
37408;DHT22;24866;50.248;8.252;2023-03-25T01:24:40;7.50;99.90
37408;DHT22;24866;50.248;8.252;2023-03-25T01:27:10;7.50;99.90
37408;DHT22;24866;50.248;8.252;2023-03-25T01:29:42;7.50;99.90
37408;DHT22;24866;50.248;8.252;2023-03-25T01:32:12;7.50;99.90
37408;DHT22;24866;50.248;8.252;2023-03-25T01:34:42;7.50;99.90
37408;DHT22;24866;50.248;8.252;2023-03-25T01:37:12;7.50;99.90
37408;DHT22;24866;50.248;8.252;2023-03-25T01:39:42;7.50;99.90
37408;DHT22;24866;50.248;8.252;2023-03-25T01:42:12;7.50;99.90
37408;DHT22;24866;50.248;8.252;2023-03-25T01:45:18;7.50;99.90
37408;DHT22;24866;50.248;8.252;2023-03-25T01:47:52;7.50;99.90
37408;DHT22;24866;50.248;8.252;2023-03-25T01:50:23;7.50;99.90
37408;DHT22;24866;50.248;8.252;2023-03-25T01:52:57;7.60;99.90
37408;DHT22;24866;50.248;8.252;2023-03-25T01:55:29;7.60;99.90
37408;DHT22;24866;50.248;8.252;2023-03-25T01:58:03;7.60;99.90
37408;DHT22;24866;50.248;8.252;2023-03-25T02:00:37;7.50;99.90
37408;DHT22;24866;50.248;8.252;2023-03-25T02:03:08;7.40;99.90
37408;DHT22;24866;50.248;8.252;2023-03-25T02:05:42;7.40;99.90
37408;DHT22;24866;50.248;8.252;2023-03-25T02:08:15;7.40;99.90
37408;DHT22;24866;50.248;8.252;2023-03-25T02:10:46;7.40;99.90
37408;DHT22;24866;50.248;8.252;2023-03-25T02:13:16;7.40;99.90
37408;DHT22;24866;50.248;8.252;2023-03-25T02:16:07;7.40;99.90
37408;DHT22;24866;50.248;8.252;2023-03-25T02:18:46;7.40;99.90
37408;DHT22;24866;50.248;8.252;2023-03-25T02:21:39;7.40;99.90
37408;DHT22;24866;50.248;8.252;2023-03-25T02:24:33;7.40;99.90
37408;DHT22;24866;50.248;8.252;2023-03-25T02:27:25;7.40;99.90
37408;DHT22;24866;50.248;8.252;2023-03-25T02:30:26;7.40;99.90
37408;DHT22;24866;50.248;8.252;2023-03-25T02:33:21;7.40;99.90
37408;DHT22;24866;50.248;8.252;2023-03-25T02:36:23;7.40;99.90
37408;DHT22;24866;50.248;8.252;2023-03-25T02:39:00;7.40;99.90
37408;DHT22;24866;50.248;8.252;2023-03-25T02:41:38;7.60;99.90
37408;DHT22;24866;50.248;8.252;2023-03-25T02:44:12;7.60;99.90
37408;DHT22;24866;50.248;8.252;2023-03-25T02:46:48;7.50;99.90
37408;DHT22;24866;50.248;8.252;2023-03-25T02:49:22;7.50;99.90
37408;DHT22;24866;50.248;8.252;2023-03-25T02:51:57;7.50;99.90
37408;DHT22;24866;50.248;8.252;2023-03-25T02:54:32;7.60;99.90
37408;DHT22;24866;50.248;8.252;2023-03-25T02:57:07;7.60;99.90
37408;DHT22;24866;50.248;8.252;2023-03-25T02:59:38;7.60;99.90
37408;DHT22;24866;50.248;8.252;2023-03-25T03:02:09;7.70;99.90
37408;DHT22;24866;50.248;8.252;2023-03-25T03:04:48;7.70;99.90
37408;DHT22;24866;50.248;8.252;2023-03-25T03:07:25;7.80;99.90
37408;DHT22;24866;50.248;8.252;2023-03-25T03:10:02;7.80;99.90
37408;DHT22;24866;50.248;8.252;2023-03-25T03:12:44;7.80;99.90
37408;DHT22;24866;50.248;8.252;2023-03-25T03:15:23;7.80;99.90
37408;DHT22;24866;50.248;8.252;2023-03-25T03:18:15;7.80;99.90
37408;DHT22;24866;50.248;8.252;2023-03-25T03:20:54;7.90;99.90
37408;DHT22;24866;50.248;8.252;2023-03-25T03:23:31;7.90;99.90
37408;DHT22;24866;50.248;8.252;2023-03-25T03:26:10;7.90;99.90
37408;DHT22;24866;50.248;8.252;2023-03-25T03:28:46;7.90;99.90
37408;DHT22;24866;50.248;8.252;2023-03-25T03:31:23;7.80;99.90
37408;DHT22;24866;50.248;8.252;2023-03-25T03:33:58;7.80;99.90
37408;DHT22;24866;50.248;8.252;2023-03-25T03:36:35;7.80;99.90
37408;DHT22;24866;50.248;8.252;2023-03-25T03:39:09;7.70;99.90
37408;DHT22;24866;50.248;8.252;2023-03-25T03:41:45;7.80;99.90
37408;DHT22;24866;50.248;8.252;2023-03-25T03:44:19;7.80;99.90
37408;DHT22;24866;50.248;8.252;2023-03-25T03:46:52;7.80;99.90
37408;DHT22;24866;50.248;8.252;2023-03-25T03:49:28;7.80;99.90
37408;DHT22;24866;50.248;8.252;2023-03-25T03:52:06;7.80;99.90
37408;DHT22;24866;50.248;8.252;2023-03-25T03:54:40;7.80;99.90
37408;DHT22;24866;50.248;8.252;2023-03-25T03:57:19;7.80;99.90
37408;DHT22;24866;50.248;8.252;2023-03-25T03:59:56;7.70;99.90
37408;DHT22;24866;50.248;8.252;2023-03-25T04:02:29;7.60;99.90
37408;DHT22;24866;50.248;8.252;2023-03-25T04:05:03;7.60;99.90
37408;DHT22;24866;50.248;8.252;2023-03-25T04:07:39;7.70;99.90
37408;DHT22;24866;50.248;8.252;2023-03-25T04:10:13;7.70;99.90
37408;DHT22;24866;50.248;8.252;2023-03-25T04:12:49;7.70;99.90
37408;DHT22;24866;50.248;8.252;2023-03-25T04:15:20;7.60;99.90
37408;DHT22;24866;50.248;8.252;2023-03-25T04:17:50;7.70;99.90
37408;DHT22;24866;50.248;8.252;2023-03-25T04:20:23;7.70;99.90
37408;DHT22;24866;50.248;8.252;2023-03-25T04:22:57;7.70;99.90
37408;DHT22;24866;50.248;8.252;2023-03-25T04:25:27;7.70;99.90
37408;DHT22;24866;50.248;8.252;2023-03-25T04:28:01;7.70;99.90
37408;DHT22;24866;50.248;8.252;2023-03-25T04:30:31;7.80;99.90
37408;DHT22;24866;50.248;8.252;2023-03-25T04:33:01;7.80;99.90
37408;DHT22;24866;50.248;8.252;2023-03-25T04:35:31;7.70;99.90
37408;DHT22;24866;50.248;8.252;2023-03-25T04:38:01;7.80;99.90
37408;DHT22;24866;50.248;8.252;2023-03-25T04:40:31;7.70;99.90
37408;DHT22;24866;50.248;8.252;2023-03-25T04:43:02;7.70;99.90
37408;DHT22;24866;50.248;8.252;2023-03-25T04:45:33;7.80;99.90
37408;DHT22;24866;50.248;8.252;2023-03-25T04:48:04;7.80;99.90
37408;DHT22;24866;50.248;8.252;2023-03-25T04:50:34;7.70;99.90
37408;DHT22;24866;50.248;8.252;2023-03-25T04:53:04;7.80;99.90
37408;DHT22;24866;50.248;8.252;2023-03-25T04:55:34;7.70;99.90
37408;DHT22;24866;50.248;8.252;2023-03-25T04:58:05;7.80;99.90
37408;DHT22;24866;50.248;8.252;2023-03-25T05:00:35;7.80;99.90
37408;DHT22;24866;50.248;8.252;2023-03-25T05:03:05;7.70;99.90
37408;DHT22;24866;50.248;8.252;2023-03-25T05:05:35;7.70;99.90
37408;DHT22;24866;50.248;8.252;2023-03-25T05:08:05;7.70;99.90
37408;DHT22;24866;50.248;8.252;2023-03-25T05:10:35;7.70;99.90
37408;DHT22;24866;50.248;8.252;2023-03-25T05:13:08;7.60;99.90
37408;DHT22;24866;50.248;8.252;2023-03-25T05:15:38;7.70;99.90
37408;DHT22;24866;50.248;8.252;2023-03-25T05:18:10;7.70;99.90
37408;DHT22;24866;50.248;8.252;2023-03-25T05:20:41;7.70;99.90
37408;DHT22;24866;50.248;8.252;2023-03-25T05:23:12;7.70;99.90
37408;DHT22;24866;50.248;8.252;2023-03-25T05:25:46;7.70;99.90
37408;DHT22;24866;50.248;8.252;2023-03-25T05:28:19;7.70;99.90
37408;DHT22;24866;50.248;8.252;2023-03-25T05:30:49;7.60;99.90
37408;DHT22;24866;50.248;8.252;2023-03-25T05:33:19;7.50;99.90
37408;DHT22;24866;50.248;8.252;2023-03-25T05:35:49;7.50;99.90
37408;DHT22;24866;50.248;8.252;2023-03-25T05:38:19;7.30;99.90
37408;DHT22;24866;50.248;8.252;2023-03-25T05:40:49;7.20;99.90
37408;DHT22;24866;50.248;8.252;2023-03-25T05:43:21;7.30;99.90
37408;DHT22;24866;50.248;8.252;2023-03-25T05:45:51;7.20;99.90
37408;DHT22;24866;50.248;8.252;2023-03-25T05:48:21;7.20;99.90
37408;DHT22;24866;50.248;8.252;2023-03-25T05:50:51;7.20;99.90
37408;DHT22;24866;50.248;8.252;2023-03-25T05:53:24;7.20;99.90
37408;DHT22;24866;50.248;8.252;2023-03-25T05:55:54;7.20;99.90
37408;DHT22;24866;50.248;8.252;2023-03-25T05:58:25;7.10;99.90
37408;DHT22;24866;50.248;8.252;2023-03-25T06:00:55;7.10;99.90
37408;DHT22;24866;50.248;8.252;2023-03-25T06:03:25;7.10;99.90
37408;DHT22;24866;50.248;8.252;2023-03-25T06:05:55;7.10;99.90
37408;DHT22;24866;50.248;8.252;2023-03-25T06:08:26;7.20;99.90
37408;DHT22;24866;50.248;8.252;2023-03-25T06:10:57;7.20;99.90
37408;DHT22;24866;50.248;8.252;2023-03-25T06:13:29;7.30;99.90
37408;DHT22;24866;50.248;8.252;2023-03-25T06:16:01;7.30;99.90
37408;DHT22;24866;50.248;8.252;2023-03-25T06:18:31;7.40;99.90
37408;DHT22;24866;50.248;8.252;2023-03-25T06:21:01;7.40;99.90
37408;DHT22;24866;50.248;8.252;2023-03-25T06:23:31;7.40;99.90
37408;DHT22;24866;50.248;8.252;2023-03-25T06:26:03;7.30;99.90
37408;DHT22;24866;50.248;8.252;2023-03-25T06:28:35;7.40;99.90
37408;DHT22;24866;50.248;8.252;2023-03-25T06:31:11;7.40;99.90
37408;DHT22;24866;50.248;8.252;2023-03-25T06:33:41;7.50;99.90
37408;DHT22;24866;50.248;8.252;2023-03-25T06:36:12;7.60;99.90
37408;DHT22;24866;50.248;8.252;2023-03-25T06:38:43;7.60;99.90
37408;DHT22;24866;50.248;8.252;2023-03-25T06:41:13;7.60;99.90
37408;DHT22;24866;50.248;8.252;2023-03-25T06:43:46;7.70;99.90
37408;DHT22;24866;50.248;8.252;2023-03-25T06:46:16;7.70;99.90
37408;DHT22;24866;50.248;8.252;2023-03-25T06:48:46;7.70;99.90
37408;DHT22;24866;50.248;8.252;2023-03-25T06:51:16;7.70;99.90
37408;DHT22;24866;50.248;8.252;2023-03-25T06:53:46;7.90;99.90
37408;DHT22;24866;50.248;8.252;2023-03-25T06:56:17;8.10;99.90
37408;DHT22;24866;50.248;8.252;2023-03-25T06:58:48;8.20;99.90
37408;DHT22;24866;50.248;8.252;2023-03-25T07:01:18;8.30;99.90
37408;DHT22;24866;50.248;8.252;2023-03-25T07:03:48;8.30;99.90
37408;DHT22;24866;50.248;8.252;2023-03-25T07:06:20;8.30;99.90
37408;DHT22;24866;50.248;8.252;2023-03-25T07:08:50;8.30;99.90
37408;DHT22;24866;50.248;8.252;2023-03-25T07:11:24;8.30;99.90
37408;DHT22;24866;50.248;8.252;2023-03-25T07:13:56;8.30;99.90
37408;DHT22;24866;50.248;8.252;2023-03-25T07:16:26;8.40;99.90
37408;DHT22;24866;50.248;8.252;2023-03-25T07:18:56;8.50;99.90
37408;DHT22;24866;50.248;8.252;2023-03-25T07:21:26;8.50;99.90
37408;DHT22;24866;50.248;8.252;2023-03-25T07:23:56;8.40;99.90
37408;DHT22;24866;50.248;8.252;2023-03-25T07:26:26;8.40;99.90
37408;DHT22;24866;50.248;8.252;2023-03-25T07:28:58;8.40;99.90
37408;DHT22;24866;50.248;8.252;2023-03-25T07:31:28;8.30;99.90
37408;DHT22;24866;50.248;8.252;2023-03-25T07:33:58;8.30;99.90
37408;DHT22;24866;50.248;8.252;2023-03-25T07:36:30;8.40;99.90
37408;DHT22;24866;50.248;8.252;2023-03-25T07:39:00;8.40;99.90
37408;DHT22;24866;50.248;8.252;2023-03-25T07:41:31;8.50;99.90
37408;DHT22;24866;50.248;8.252;2023-03-25T07:44:03;8.60;99.90
37408;DHT22;24866;50.248;8.252;2023-03-25T07:46:33;8.70;99.90
37408;DHT22;24866;50.248;8.252;2023-03-25T07:49:03;8.70;99.90
37408;DHT22;24866;50.248;8.252;2023-03-25T07:51:33;8.70;99.90
37408;DHT22;24866;50.248;8.252;2023-03-25T07:54:03;8.70;99.90
37408;DHT22;24866;50.248;8.252;2023-03-25T07:56:34;8.60;99.90
37408;DHT22;24866;50.248;8.252;2023-03-25T07:59:05;8.70;99.90
37408;DHT22;24866;50.248;8.252;2023-03-25T08:01:35;8.70;99.90
37408;DHT22;24866;50.248;8.252;2023-03-25T08:04:05;8.70;99.90
37408;DHT22;24866;50.248;8.252;2023-03-25T08:06:36;8.80;99.90
37408;DHT22;24866;50.248;8.252;2023-03-25T08:09:06;8.80;99.90
37408;DHT22;24866;50.248;8.252;2023-03-25T08:11:36;8.80;99.90
37408;DHT22;24866;50.248;8.252;2023-03-25T08:14:09;8.90;99.90
37408;DHT22;24866;50.248;8.252;2023-03-25T08:16:39;9.00;99.90
37408;DHT22;24866;50.248;8.252;2023-03-25T08:19:10;9.00;99.90
37408;DHT22;24866;50.248;8.252;2023-03-25T08:21:40;9.10;99.90
37408;DHT22;24866;50.248;8.252;2023-03-25T08:24:10;9.30;99.90
37408;DHT22;24866;50.248;8.252;2023-03-25T08:26:41;9.50;99.90
37408;DHT22;24866;50.248;8.252;2023-03-25T08:29:12;9.50;99.90
37408;DHT22;24866;50.248;8.252;2023-03-25T08:31:45;9.50;99.90
37408;DHT22;24866;50.248;8.252;2023-03-25T08:34:21;9.60;99.90
37408;DHT22;24866;50.248;8.252;2023-03-25T08:36:51;9.60;99.90
37408;DHT22;24866;50.248;8.252;2023-03-25T08:39:21;9.50;99.90
37408;DHT22;24866;50.248;8.252;2023-03-25T08:41:57;9.50;99.90
37408;DHT22;24866;50.248;8.252;2023-03-25T08:44:29;9.40;99.90
37408;DHT22;24866;50.248;8.252;2023-03-25T08:46:59;9.40;99.90
37408;DHT22;24866;50.248;8.252;2023-03-25T08:49:29;9.40;99.90
37408;DHT22;24866;50.248;8.252;2023-03-25T08:51:59;9.40;99.90
37408;DHT22;24866;50.248;8.252;2023-03-25T08:54:31;9.40;99.90
37408;DHT22;24866;50.248;8.252;2023-03-25T08:57:01;9.50;99.90
37408;DHT22;24866;50.248;8.252;2023-03-25T08:59:33;9.50;99.90
37408;DHT22;24866;50.248;8.252;2023-03-25T09:02:03;9.50;99.90
37408;DHT22;24866;50.248;8.252;2023-03-25T09:04:34;9.50;99.90
37408;DHT22;24866;50.248;8.252;2023-03-25T09:07:06;9.40;99.90
37408;DHT22;24866;50.248;8.252;2023-03-25T09:09:38;9.30;99.90
37408;DHT22;24866;50.248;8.252;2023-03-25T09:12:08;8.70;99.90
37408;DHT22;24866;50.248;8.252;2023-03-25T09:14:40;5.70;99.90
37408;DHT22;24866;50.248;8.252;2023-03-25T09:17:10;5.50;99.90
37408;DHT22;24866;50.248;8.252;2023-03-25T09:19:40;5.50;99.90
37408;DHT22;24866;50.248;8.252;2023-03-25T09:22:10;5.60;99.90
37408;DHT22;24866;50.248;8.252;2023-03-25T09:24:40;5.50;99.90
37408;DHT22;24866;50.248;8.252;2023-03-25T09:27:10;5.40;99.90
37408;DHT22;24866;50.248;8.252;2023-03-25T09:29:41;5.20;99.90
37408;DHT22;24866;50.248;8.252;2023-03-25T09:32:12;5.30;99.90
37408;DHT22;24866;50.248;8.252;2023-03-25T09:34:42;5.20;99.90
37408;DHT22;24866;50.248;8.252;2023-03-25T09:37:13;5.20;99.90
37408;DHT22;24866;50.248;8.252;2023-03-25T09:39:44;5.20;99.90
37408;DHT22;24866;50.248;8.252;2023-03-25T09:42:29;5.20;99.90
37408;DHT22;24866;50.248;8.252;2023-03-25T09:45:14;5.30;99.90
37408;DHT22;24866;50.248;8.252;2023-03-25T09:47:52;5.50;99.90
37408;DHT22;24866;50.248;8.252;2023-03-25T09:50:24;5.50;99.90
37408;DHT22;24866;50.248;8.252;2023-03-25T09:52:58;5.60;99.90
37408;DHT22;24866;50.248;8.252;2023-03-25T09:55:33;5.60;99.90
37408;DHT22;24866;50.248;8.252;2023-03-25T09:58:30;6.00;99.90
37408;DHT22;24866;50.248;8.252;2023-03-25T10:01:17;6.30;99.90
37408;DHT22;24866;50.248;8.252;2023-03-25T10:03:57;6.70;99.90
37408;DHT22;24866;50.248;8.252;2023-03-25T10:06:30;7.10;99.90
37408;DHT22;24866;50.248;8.252;2023-03-25T10:09:18;7.60;99.90
37408;DHT22;24866;50.248;8.252;2023-03-25T10:11:57;7.90;99.90
37408;DHT22;24866;50.248;8.252;2023-03-25T10:14:36;8.10;99.90
37408;DHT22;24866;50.248;8.252;2023-03-25T10:17:16;8.40;99.90
37408;DHT22;24866;50.248;8.252;2023-03-25T10:19:57;8.50;99.90
37408;DHT22;24866;50.248;8.252;2023-03-25T10:22:37;8.70;99.90
37408;DHT22;24866;50.248;8.252;2023-03-25T10:25:14;9.00;99.90
37408;DHT22;24866;50.248;8.252;2023-03-25T10:27:49;9.20;99.90
37408;DHT22;24866;50.248;8.252;2023-03-25T10:30:23;9.00;99.90
37408;DHT22;24866;50.248;8.252;2023-03-25T10:32:56;9.10;99.90
37408;DHT22;24866;50.248;8.252;2023-03-25T10:35:28;9.40;99.90
37408;DHT22;24866;50.248;8.252;2023-03-25T10:38:02;9.40;99.90
37408;DHT22;24866;50.248;8.252;2023-03-25T10:40:38;9.70;99.90
37408;DHT22;24866;50.248;8.252;2023-03-25T10:43:17;9.70;99.90
37408;DHT22;24866;50.248;8.252;2023-03-25T10:45:53;10.40;99.90
37408;DHT22;24866;50.248;8.252;2023-03-25T10:48:27;10.30;99.90
37408;DHT22;24866;50.248;8.252;2023-03-25T10:51:03;10.10;99.90
37408;DHT22;24866;50.248;8.252;2023-03-25T10:53:37;10.20;99.90
37408;DHT22;24866;50.248;8.252;2023-03-25T10:56:12;10.30;99.90
37408;DHT22;24866;50.248;8.252;2023-03-25T10:58:46;10.40;99.90
37408;DHT22;24866;50.248;8.252;2023-03-25T11:01:18;10.30;99.90
37408;DHT22;24866;50.248;8.252;2023-03-25T11:03:51;10.50;99.90
37408;DHT22;24866;50.248;8.252;2023-03-25T11:06:24;10.50;99.90
37408;DHT22;24866;50.248;8.252;2023-03-25T11:09:09;10.80;99.90
37408;DHT22;24866;50.248;8.252;2023-03-25T11:11:41;10.50;99.90
37408;DHT22;24866;50.248;8.252;2023-03-25T11:14:12;10.70;99.90
37408;DHT22;24866;50.248;8.252;2023-03-25T11:16:45;10.80;99.90
37408;DHT22;24866;50.248;8.252;2023-03-25T11:19:21;10.90;99.90
37408;DHT22;24866;50.248;8.252;2023-03-25T11:21:56;10.70;99.90
37408;DHT22;24866;50.248;8.252;2023-03-25T11:24:30;10.70;99.90
37408;DHT22;24866;50.248;8.252;2023-03-25T11:27:02;11.10;99.90
37408;DHT22;24866;50.248;8.252;2023-03-25T11:29:37;11.00;99.90
37408;DHT22;24866;50.248;8.252;2023-03-25T11:32:12;11.30;99.90
37408;DHT22;24866;50.248;8.252;2023-03-25T11:34:49;11.00;99.90
37408;DHT22;24866;50.248;8.252;2023-03-25T11:37:22;11.00;99.90
37408;DHT22;24866;50.248;8.252;2023-03-25T11:39:54;10.90;99.90
37408;DHT22;24866;50.248;8.252;2023-03-25T11:42:29;10.90;99.90
37408;DHT22;24866;50.248;8.252;2023-03-25T11:45:01;11.30;99.90
37408;DHT22;24866;50.248;8.252;2023-03-25T11:47:33;11.20;99.90
37408;DHT22;24866;50.248;8.252;2023-03-25T11:50:16;11.20;99.90
37408;DHT22;24866;50.248;8.252;2023-03-25T11:52:48;11.30;99.90
37408;DHT22;24866;50.248;8.252;2023-03-25T11:55:23;11.20;99.90
37408;DHT22;24866;50.248;8.252;2023-03-25T11:57:55;11.20;99.90
37408;DHT22;24866;50.248;8.252;2023-03-25T12:00:34;11.50;99.90
37408;DHT22;24866;50.248;8.252;2023-03-25T12:03:14;11.30;99.90
37408;DHT22;24866;50.248;8.252;2023-03-25T12:05:58;11.30;99.90
37408;DHT22;24866;50.248;8.252;2023-03-25T12:08:39;11.20;99.90
37408;DHT22;24866;50.248;8.252;2023-03-25T12:11:15;11.10;99.90
37408;DHT22;24866;50.248;8.252;2023-03-25T12:13:59;11.20;99.90
37408;DHT22;24866;50.248;8.252;2023-03-25T12:16:41;11.20;99.90
37408;DHT22;24866;50.248;8.252;2023-03-25T12:19:20;11.00;99.90
37408;DHT22;24866;50.248;8.252;2023-03-25T12:22:07;11.10;99.90
37408;DHT22;24866;50.248;8.252;2023-03-25T12:24:58;11.00;99.90
37408;DHT22;24866;50.248;8.252;2023-03-25T12:27:41;10.80;99.90
37408;DHT22;24866;50.248;8.252;2023-03-25T12:30:29;10.90;99.90
37408;DHT22;24866;50.248;8.252;2023-03-25T12:33:11;10.90;99.90
37408;DHT22;24866;50.248;8.252;2023-03-25T12:35:48;11.30;99.90
37408;DHT22;24866;50.248;8.252;2023-03-25T12:38:37;11.30;99.90
37408;DHT22;24866;50.248;8.252;2023-03-25T12:41:16;11.50;99.90
37408;DHT22;24866;50.248;8.252;2023-03-25T12:43:57;11.70;99.90
37408;DHT22;24866;50.248;8.252;2023-03-25T12:49:46;12.00;99.90
37408;DHT22;24866;50.248;8.252;2023-03-25T12:52:25;12.00;99.90
37408;DHT22;24866;50.248;8.252;2023-03-25T12:55:22;12.10;99.90
37408;DHT22;24866;50.248;8.252;2023-03-25T12:58:03;12.20;99.90
37408;DHT22;24866;50.248;8.252;2023-03-25T13:00:43;11.70;1.00
37408;DHT22;24866;50.248;8.252;2023-03-25T13:03:49;11.60;99.90
37408;DHT22;24866;50.248;8.252;2023-03-25T13:06:27;11.10;1.00
37408;DHT22;24866;50.248;8.252;2023-03-25T13:09:02;10.80;99.90
37408;DHT22;24866;50.248;8.252;2023-03-25T13:11:38;10.70;1.00
37408;DHT22;24866;50.248;8.252;2023-03-25T13:14:16;10.70;1.00
37408;DHT22;24866;50.248;8.252;2023-03-25T13:16:50;11.10;99.90
37408;DHT22;24866;50.248;8.252;2023-03-25T13:19:24;11.10;99.90
37408;DHT22;24866;50.248;8.252;2023-03-25T13:21:57;11.30;99.90
37408;DHT22;24866;50.248;8.252;2023-03-25T13:24:37;11.70;1.00
37408;DHT22;24866;50.248;8.252;2023-03-25T13:27:11;11.40;99.90
37408;DHT22;24866;50.248;8.252;2023-03-25T13:29:43;11.30;7.90
37408;DHT22;24866;50.248;8.252;2023-03-25T13:32:19;11.40;1.00
37408;DHT22;24866;50.248;8.252;2023-03-25T13:34:53;11.60;1.00
37408;DHT22;24866;50.248;8.252;2023-03-25T13:37:30;11.80;1.00
37408;DHT22;24866;50.248;8.252;2023-03-25T13:40:22;12.20;1.00
37408;DHT22;24866;50.248;8.252;2023-03-25T13:43:01;12.00;99.90
37408;DHT22;24866;50.248;8.252;2023-03-25T13:45:41;11.60;99.90
37408;DHT22;24866;50.248;8.252;2023-03-25T13:48:17;11.40;99.90
37408;DHT22;24866;50.248;8.252;2023-03-25T13:50:48;11.60;99.90
37408;DHT22;24866;50.248;8.252;2023-03-25T13:53:24;11.80;99.90
37408;DHT22;24866;50.248;8.252;2023-03-25T13:56:14;12.10;99.90
37408;DHT22;24866;50.248;8.252;2023-03-25T14:01:57;12.30;99.90
37408;DHT22;24866;50.248;8.252;2023-03-25T14:04:58;12.10;99.90
37408;DHT22;24866;50.248;8.252;2023-03-25T14:10:38;12.10;1.00
37408;DHT22;24866;50.248;8.252;2023-03-25T14:13:13;12.30;1.00
37408;DHT22;24866;50.248;8.252;2023-03-25T14:15:54;12.80;1.00
37408;DHT22;24866;50.248;8.252;2023-03-25T14:18:25;13.20;1.00
37408;DHT22;24866;50.248;8.252;2023-03-25T14:21:12;12.70;99.90
37408;DHT22;24866;50.248;8.252;2023-03-25T14:23:44;13.00;99.90
37408;DHT22;24866;50.248;8.252;2023-03-25T14:26:16;12.80;99.90
37408;DHT22;24866;50.248;8.252;2023-03-25T14:28:47;12.70;99.90
37408;DHT22;24866;50.248;8.252;2023-03-25T14:31:29;12.40;1.00
37408;DHT22;24866;50.248;8.252;2023-03-25T14:34:24;12.60;1.00
37408;DHT22;24866;50.248;8.252;2023-03-25T14:37:26;12.40;1.00
37408;DHT22;24866;50.248;8.252;2023-03-25T14:39:59;12.50;1.00
37408;DHT22;24866;50.248;8.252;2023-03-25T14:42:56;12.90;1.00
37408;DHT22;24866;50.248;8.252;2023-03-25T14:45:33;13.30;1.00
37408;DHT22;24866;50.248;8.252;2023-03-25T14:48:28;13.10;1.00
37408;DHT22;24866;50.248;8.252;2023-03-25T14:51:19;13.10;1.00
37408;DHT22;24866;50.248;8.252;2023-03-25T14:53:53;13.50;1.00
37408;DHT22;24866;50.248;8.252;2023-03-25T14:56:30;13.50;1.00
37408;DHT22;24866;50.248;8.252;2023-03-25T14:59:08;13.50;1.00
37408;DHT22;24866;50.248;8.252;2023-03-25T15:01:40;13.60;1.00
37408;DHT22;24866;50.248;8.252;2023-03-25T15:04:23;13.30;99.90
37408;DHT22;24866;50.248;8.252;2023-03-25T15:06:57;13.30;99.90
37408;DHT22;24866;50.248;8.252;2023-03-25T15:09:28;13.20;99.90
37408;DHT22;24866;50.248;8.252;2023-03-25T15:12:02;13.00;99.90
37408;DHT22;24866;50.248;8.252;2023-03-25T15:14:35;13.00;96.70
37408;DHT22;24866;50.248;8.252;2023-03-25T15:17:09;13.10;58.00
37408;DHT22;24866;50.248;8.252;2023-03-25T15:20:24;13.10;9.40
37408;DHT22;24866;50.248;8.252;2023-03-25T15:23:26;13.30;1.00
37408;DHT22;24866;50.248;8.252;2023-03-25T15:25:58;13.20;1.00
37408;DHT22;24866;50.248;8.252;2023-03-25T15:28:46;13.10;1.00
37408;DHT22;24866;50.248;8.252;2023-03-25T15:34:29;13.10;1.00
37408;DHT22;24866;50.248;8.252;2023-03-25T15:37:25;13.30;1.00
37408;DHT22;24866;50.248;8.252;2023-03-25T15:43:16;13.10;1.00
37408;DHT22;24866;50.248;8.252;2023-03-25T15:46:23;13.00;1.00
37408;DHT22;24866;50.248;8.252;2023-03-25T15:52:18;12.70;99.90
37408;DHT22;24866;50.248;8.252;2023-03-25T15:54:54;12.80;99.90
37408;DHT22;24866;50.248;8.252;2023-03-25T15:57:28;12.80;99.90
37408;DHT22;24866;50.248;8.252;2023-03-25T16:00:03;12.70;99.90
37408;DHT22;24866;50.248;8.252;2023-03-25T16:02:46;12.70;99.90
37408;DHT22;24866;50.248;8.252;2023-03-25T16:05:18;12.70;99.90
37408;DHT22;24866;50.248;8.252;2023-03-25T16:07:50;12.70;99.90
37408;DHT22;24866;50.248;8.252;2023-03-25T16:10:27;12.70;99.90
37408;DHT22;24866;50.248;8.252;2023-03-25T16:13:02;12.70;50.60
37408;DHT22;24866;50.248;8.252;2023-03-25T16:15:34;12.80;60.80
37408;DHT22;24866;50.248;8.252;2023-03-25T16:18:05;12.80;40.40
37408;DHT22;24866;50.248;8.252;2023-03-25T16:20:36;12.90;9.80
37408;DHT22;24866;50.248;8.252;2023-03-25T16:23:18;12.70;1.00
37408;DHT22;24866;50.248;8.252;2023-03-25T16:25:50;12.40;1.00
37408;DHT22;24866;50.248;8.252;2023-03-25T16:28:24;12.10;1.00
37408;DHT22;24866;50.248;8.252;2023-03-25T16:30:55;12.10;1.00
37408;DHT22;24866;50.248;8.252;2023-03-25T16:33:28;12.10;1.00
37408;DHT22;24866;50.248;8.252;2023-03-25T16:35:58;11.90;1.00
37408;DHT22;24866;50.248;8.252;2023-03-25T16:38:31;11.80;1.00
37408;DHT22;24866;50.248;8.252;2023-03-25T16:41:02;11.70;1.00
37408;DHT22;24866;50.248;8.252;2023-03-25T16:43:33;11.80;1.00
37408;DHT22;24866;50.248;8.252;2023-03-25T16:46:04;11.80;1.00
37408;DHT22;24866;50.248;8.252;2023-03-25T16:48:38;11.80;1.00
37408;DHT22;24866;50.248;8.252;2023-03-25T16:51:11;11.80;1.00